Time;durP1;ratioP1;P1;durP2;ratioP2;P2;SDS_P1;SDS_P2;PMS_P1;PMS_P2;Temp;Humidity;BMP_temperature;BMP_pressure;BME280_temperature;BME280_humidity;BME280_pressure;Samples;Min_cycle;Max_cycle;Signal;HPM_P1;HPM_P2
2023/11/25 00:00:24;;;;;;;1.40;0.30;;;;;;;2.21;93.30;98163.73;110559;1273;22439;-79
2023/11/25 00:03:13;;;;;;;3.90;0.40;;;;;;;2.20;93.28;98164.65;110553;1273;22058;-79
2023/11/25 00:05:49;;;;;;;4.00;0.50;;;;;;;2.17;93.38;98160.76;110585;1273;22261;-79
2023/11/25 00:09:06;;;;;;;2.40;0.30;;;;;;;2.16;93.55;98159.02;110657;1273;22266;-79
2023/11/25 00:11:35;;;;;;;3.40;0.40;;;;;;;2.14;93.70;98156.39;110174;1276;22662;-79
2023/11/25 00:14:10;;;;;;;2.70;0.40;;;;;;;2.12;93.67;98157.45;110209;1278;22242;-81
2023/11/25 00:16:59;;;;;;;2.00;0.30;;;;;;;2.10;93.75;98162.16;110199;1278;22216;-81
2023/11/25 00:19:29;;;;;;;4.10;0.40;;;;;;;2.07;93.87;98153.36;110157;1279;22950;-80
2023/11/25 00:21:58;;;;;;;2.00;0.40;;;;;;;2.06;93.91;98157.50;110215;1276;22200;-79
2023/11/25 00:24:48;;;;;;;1.50;0.30;;;;;;;2.05;93.95;98160.08;110229;1278;22306;-79
2023/11/25 00:27:20;;;;;;;1.50;0.30;;;;;;;2.03;94.01;98161.29;110186;1274;22234;-80
2023/11/25 00:30:14;;;;;;;3.10;0.40;;;;;;;2.02;94.02;98160.41;110082;1278;22167;-79
2023/11/25 00:33:03;;;;;;;1.60;0.40;;;;;;;2.00;94.13;98162.79;110199;1276;22272;-80
2023/11/25 00:35:33;;;;;;;1.80;0.30;;;;;;;1.99;94.30;98159.56;110379;1273;22187;-80
2023/11/25 00:38:08;;;;;;;2.00;0.20;;;;;;;1.99;94.36;98164.62;110598;1267;22212;-79
2023/11/25 00:40:39;;;;;;;1.70;0.30;;;;;;;1.98;94.27;98167.80;110635;1273;22417;-79
2023/11/25 00:43:11;;;;;;;2.00;0.30;;;;;;;1.98;94.31;98167.51;110638;1263;22183;-79
2023/11/25 00:45:42;;;;;;;2.50;0.30;;;;;;;1.97;94.58;98202.91;110650;1264;22351;-79
2023/11/25 00:48:12;;;;;;;1.00;0.20;;;;;;;1.85;94.60;98229.88;110622;1273;22366;-79
2023/11/25 00:51:05;;;;;;;4.80;0.60;;;;;;;1.45;95.36;98229.25;110611;1267;22794;-80
2023/11/25 00:53:55;;;;;;;3.00;0.10;;;;;;;1.15;95.72;98224.36;110545;1273;22656;-79
2023/11/25 00:56:25;;;;;;;1.30;0.00;;;;;;;0.93;96.37;98228.03;110605;1273;23071;-79
2023/11/25 00:58:55;;;;;;;0.40;0.00;;;;;;;0.77;96.78;98227.04;110625;1273;22214;-79
2023/11/25 01:01:25;;;;;;;0.20;0.00;;;;;;;0.66;97.15;98232.90;110559;1273;22190;-79
2023/11/25 01:03:54;;;;;;;2.30;0.10;;;;;;;0.58;97.38;98229.77;108117;1267;25476;-79
2023/11/25 01:06:22;;;;;;;0.70;0.00;;;;;;;0.54;97.35;98225.56;107876;1267;22535;-78
2023/11/25 01:08:51;;;;;;;2.00;0.00;;;;;;;0.52;97.45;98226.78;107950;1264;27560;-78
2023/11/25 01:11:20;;;;;;;1.40;0.10;;;;;;;0.50;97.01;98231.88;107937;1273;22543;-79
2023/11/25 01:13:49;;;;;;;1.00;0.10;;;;;;;0.48;97.02;98236.73;107912;1273;22653;-77
2023/11/25 01:16:18;;;;;;;1.70;0.10;;;;;;;0.50;96.91;98236.42;107912;1272;25528;-78
2023/11/25 01:18:47;;;;;;;6.50;0.20;;;;;;;0.53;97.00;98241.45;110592;1273;22673;-78
2023/11/25 01:21:17;;;;;;;2.60;0.10;;;;;;;0.57;96.99;98238.68;110641;1273;22268;-78
2023/11/25 01:23:46;;;;;;;2.80;0.10;;;;;;;0.62;96.96;98240.75;110629;1273;22221;-79
2023/11/25 01:26:17;;;;;;;1.50;0.20;;;;;;;0.67;96.92;98241.16;110611;1273;22938;-79
2023/11/25 01:28:47;;;;;;;0.30;0.10;;;;;;;0.70;96.85;98241.48;110628;1273;22195;-78
2023/11/25 01:31:16;;;;;;;3.60;0.20;;;;;;;0.73;96.78;98238.90;110643;1273;22873;-78
2023/11/25 01:33:45;;;;;;;1.90;0.10;;;;;;;0.77;96.82;98242.19;110639;1273;22518;-78
2023/11/25 01:36:15;;;;;;;0.90;0.20;;;;;;;0.79;96.82;98246.94;110584;1273;22286;-79
2023/11/25 01:38:44;;;;;;;1.50;0.30;;;;;;;0.82;96.76;98243.93;110508;1273;22166;-78
2023/11/25 01:41:13;;;;;;;3.50;0.30;;;;;;;0.83;96.74;98250.35;110504;1273;22191;-79
2023/11/25 01:43:42;;;;;;;2.70;0.40;;;;;;;0.84;96.81;98261.02;110580;1273;22396;-78
2023/11/25 01:46:12;;;;;;;2.60;1.20;;;;;;;0.87;96.86;98268.52;110594;1273;22212;-78
2023/11/25 01:48:41;;;;;;;3.20;0.30;;;;;;;0.88;96.83;98272.00;110577;1270;22844;-78
2023/11/25 01:51:11;;;;;;;3.50;0.30;;;;;;;0.90;96.97;98273.86;110551;1273;22171;-79
2023/11/25 01:53:39;;;;;;;;;;;;;;;0.90;96.99;98273.25;110548;1273;23212;-78
2023/11/25 01:56:09;;;;;;;4.70;0.50;;;;;;;0.86;96.96;98277.20;110605;1273;22203;-78
2023/11/25 01:58:40;;;;;;;3.50;0.30;;;;;;;0.81;97.11;98281.73;110661;1272;22310;-78
2023/11/25 02:01:10;;;;;;;1.40;0.30;;;;;;;0.75;97.50;98283.93;110639;1273;23119;-78
2023/11/25 02:03:40;;;;;;;2.20;0.30;;;;;;;0.70;97.76;98286.89;110533;1273;23074;-79
2023/11/25 02:06:10;;;;;;;2.20;0.40;;;;;;;0.67;98.05;98291.53;110608;1273;22172;-79
2023/11/25 02:08:40;;;;;;;3.90;0.70;;;;;;;0.63;98.30;98293.73;110604;1273;23359;-78
2023/11/25 02:11:08;;;;;;;19.10;4.40;;;;;;;0.61;98.40;98295.16;110594;1273;22231;-79
2023/11/25 02:13:38;;;;;;;13.60;2.90;;;;;;;0.59;98.40;98301.28;110587;1269;22425;-78
2023/11/25 02:16:10;;;;;;;8.30;1.20;;;;;;;0.59;98.49;98304.81;110618;1266;22707;-78
2023/11/25 02:18:39;;;;;;;7.00;1.10;;;;;;;0.59;98.45;98304.91;110643;1270;23324;-78
2023/11/25 02:21:10;;;;;;;16.60;2.70;;;;;;;0.59;98.38;98313.53;110550;1273;22882;-78
2023/11/25 02:23:38;;;;;;;;;;;;;;;0.59;98.23;98315.17;110596;1273;22450;-78
2023/11/25 02:26:08;;;;;;;8.30;1.20;;;;;;;0.58;98.38;98321.02;110617;1272;23081;-78
2023/11/25 02:28:37;;;;;;;7.10;1.50;;;;;;;0.59;98.27;98323.83;110548;1273;22902;-78
2023/11/25 02:31:07;;;;;;;7.50;1.10;;;;;;;0.58;98.32;98329.01;110671;1272;22540;-78
2023/11/25 02:33:37;;;;;;;4.70;0.60;;;;;;;0.58;98.12;98340.54;110629;1270;23351;-78
2023/11/25 02:36:08;;;;;;;4.50;0.70;;;;;;;0.59;98.28;98342.25;110521;1273;23337;-78
2023/11/25 02:38:37;;;;;;;3.40;0.70;;;;;;;0.59;98.16;98342.09;110615;1272;22283;-79
2023/11/25 02:41:08;;;;;;;2.60;0.70;;;;;;;0.58;98.13;98352.56;110599;1269;22230;-78
2023/11/25 02:43:37;;;;;;;8.00;1.20;;;;;;;0.57;98.19;98359.48;110591;1265;22155;-78
2023/11/25 02:46:07;;;;;;;5.20;1.30;;;;;;;0.58;98.21;98364.83;110545;1273;22180;-78
2023/11/25 02:48:37;;;;;;;3.30;1.10;;;;;;;0.57;98.34;98372.94;110577;1271;22876;-79
2023/11/25 02:51:08;;;;;;;3.30;0.80;;;;;;;0.56;98.18;98375.77;110630;1270;22198;-78
2023/11/25 02:53:37;;;;;;;6.40;0.80;;;;;;;0.56;98.30;98378.86;110643;1266;22362;-79
2023/11/25 02:56:07;;;;;;;3.50;0.80;;;;;;;0.54;98.07;98386.75;110576;1272;22163;-78
2023/11/25 02:58:36;;;;;;;4.60;0.70;;;;;;;0.53;97.86;98395.20;110572;1272;22384;-80
2023/11/25 03:01:07;;;;;;;4.00;1.10;;;;;;;0.52;97.86;98407.16;108069;1272;22664;-80
2023/11/25 03:03:41;;;;;;;9.30;1.30;;;;;;;0.52;97.78;98411.88;110581;1273;23026;-78
2023/11/25 03:06:10;;;;;;;7.30;1.70;;;;;;;0.52;97.61;98421.61;110624;1263;22553;-78
2023/11/25 03:08:40;;;;;;;4.70;1.00;;;;;;;0.51;97.84;98419.30;110521;1273;22184;-79
2023/11/25 03:11:12;;;;;;;6.60;1.20;;;;;;;0.51;97.68;98419.69;110598;1270;22195;-79
2023/11/25 03:13:41;;;;;;;3.70;0.60;;;;;;;0.50;97.39;98428.85;110549;1266;22462;-78
2023/11/25 03:16:11;;;;;;;4.80;1.00;;;;;;;0.47;97.14;98424.72;110527;1273;22206;-78
2023/11/25 03:18:40;;;;;;;3.60;1.40;;;;;;;0.45;97.23;98428.56;110596;1272;22392;-78
2023/11/25 03:21:11;;;;;;;3.00;0.70;;;;;;;0.43;97.35;98436.58;110639;1273;22221;-78
2023/11/25 03:23:40;;;;;;;5.50;1.00;;;;;;;0.41;97.46;98440.91;110532;1269;22913;-81
2023/11/25 03:26:11;;;;;;;5.10;1.00;;;;;;;0.38;97.55;98450.34;110629;1264;22985;-78
2023/11/25 03:28:41;;;;;;;4.50;0.70;;;;;;;0.37;97.82;98457.70;110567;1270;23198;-79
2023/11/25 03:31:10;;;;;;;6.60;1.30;;;;;;;0.36;97.91;98457.97;110594;1272;22206;-80
2023/11/25 03:33:38;;;;;;;6.30;0.80;;;;;;;0.35;97.83;98462.15;110598;1273;22191;-79
2023/11/25 03:36:10;;;;;;;3.70;0.80;;;;;;;0.35;97.65;98467.66;110618;1272;22826;-78
2023/11/25 03:38:41;;;;;;;5.50;0.80;;;;;;;0.34;97.67;98470.43;110645;1273;22275;-78
2023/11/25 03:41:10;;;;;;;3.30;0.60;;;;;;;0.34;97.71;98480.86;110475;1274;22316;-80
2023/11/25 03:43:39;;;;;;;2.20;0.60;;;;;;;0.33;97.83;98486.69;110596;1267;22283;-79
2023/11/25 03:46:09;;;;;;;6.90;1.00;;;;;;;0.33;97.70;98484.03;110456;1274;22625;-80
2023/11/25 03:48:38;;;;;;;6.90;0.70;;;;;;;0.33;97.50;98486.44;110593;1273;22820;-80
2023/11/25 03:51:10;;;;;;;4.30;0.70;;;;;;;0.34;97.55;98488.55;110572;1273;22227;-78
2023/11/25 03:53:39;;;;;;;4.70;0.80;;;;;;;0.34;97.67;98495.29;110563;1273;22977;-79
2023/11/25 03:56:09;;;;;;;3.30;0.50;;;;;;;0.34;97.59;98496.94;110606;1273;22236;-79
2023/11/25 03:58:38;;;;;;;8.10;0.80;;;;;;;0.34;97.70;98498.41;110633;1266;22202;-79
2023/11/25 04:01:07;;;;;;;3.60;0.80;;;;;;;0.35;97.65;98505.27;110547;1262;22862;-79
2023/11/25 04:03:36;;;;;;;4.30;0.80;;;;;;;0.38;97.77;98509.34;110633;1273;22220;-79
2023/11/25 04:06:07;;;;;;;12.00;2.70;;;;;;;0.38;97.70;98509.89;110477;1273;22734;-79
2023/11/25 04:08:37;;;;;;;6.50;1.10;;;;;;;0.38;97.54;98508.79;110610;1266;22203;-78
2023/11/25 04:11:09;;;;;;;3.00;0.70;;;;;;;0.37;97.42;98510.23;110586;1267;22901;-79
2023/11/25 04:13:38;;;;;;;3.50;0.60;;;;;;;0.37;97.48;98512.36;110578;1262;22360;-79
2023/11/25 04:16:09;;;;;;;4.50;0.60;;;;;;;0.37;97.48;98511.48;110557;1267;22209;-78
2023/11/25 04:18:38;;;;;;;;;;;;;;;0.37;97.53;98509.14;110641;1272;22411;-79
2023/11/25 04:21:07;;;;;;;3.00;0.70;;;;;;;0.37;97.50;98511.48;110604;1270;22867;-78
2023/11/25 04:23:37;;;;;;;;;;;;;;;0.38;97.69;98514.67;110615;1273;23126;-79
2023/11/25 04:26:06;;;;;;;3.90;0.60;;;;;;;0.37;97.88;98512.28;110591;1264;22964;-78
2023/11/25 04:28:35;;;;;;;5.20;0.90;;;;;;;0.37;98.10;98517.75;110623;1270;22692;-79
2023/11/25 04:31:05;;;;;;;2.50;0.70;;;;;;;0.38;97.90;98523.61;110578;1263;22137;-78
2023/11/25 04:33:35;;;;;;;3.20;1.20;;;;;;;0.38;98.07;98522.89;110530;1273;22639;-78
2023/11/25 04:36:04;;;;;;;4.70;1.00;;;;;;;0.39;98.12;98530.45;110625;1273;22060;-78
2023/11/25 04:38:34;;;;;;;4.70;0.90;;;;;;;0.40;98.27;98535.06;110619;1266;22182;-79
2023/11/25 04:41:03;;;;;;;4.20;0.90;;;;;;;0.41;98.21;98534.79;110604;1273;22195;-78
2023/11/25 04:43:32;;;;;;;4.20;1.10;;;;;;;0.42;98.44;98538.66;110585;1273;22873;-78
2023/11/25 04:46:02;;;;;;;3.80;1.20;;;;;;;0.43;98.37;98545.34;110614;1273;22272;-79
2023/11/25 04:48:31;;;;;;;2.60;0.80;;;;;;;0.46;98.35;98549.73;110602;1273;22299;-79
2023/11/25 04:50:59;;;;;;;4.00;0.90;;;;;;;0.48;98.13;98553.17;110603;1259;22218;-79
2023/11/25 04:53:31;;;;;;;8.50;1.30;;;;;;;0.48;98.08;98558.09;110610;1273;23014;-78
2023/11/25 04:56:00;;;;;;;6.50;1.50;;;;;;;0.49;97.74;98560.17;110614;1273;22177;-79
2023/11/25 04:58:30;;;;;;;12.30;2.40;;;;;;;0.50;97.73;98562.64;110610;1273;22318;-79
2023/11/25 05:00:59;;;;;;;14.10;2.50;;;;;;;0.51;97.60;98564.35;110635;1270;22236;-78
2023/11/25 05:03:29;;;;;;;15.20;3.80;;;;;;;0.52;97.61;98568.69;110631;1272;22282;-78
2023/11/25 05:06:02;;;;;;;18.40;3.30;;;;;;;0.52;97.55;98568.84;110607;1270;23010;-78
2023/11/25 05:08:30;;;;;;;9.00;2.70;;;;;;;0.53;97.63;98569.27;110512;1273;22193;-79
2023/11/25 05:11:00;;;;;;;6.00;1.30;;;;;;;0.54;97.61;98573.55;110601;1271;22233;-79
2023/11/25 05:13:29;;;;;;;3.30;0.90;;;;;;;0.57;97.68;98581.46;110627;1273;23126;-79
2023/11/25 05:15:58;;;;;;;10.70;1.00;;;;;;;0.56;97.60;98582.35;110608;1273;22189;-78
2023/11/25 05:18:27;;;;;;;4.90;1.10;;;;;;;0.56;97.65;98590.03;110609;1270;22400;-78
2023/11/25 05:20:57;;;;;;;4.70;0.80;;;;;;;0.56;97.65;98592.33;110601;1273;22228;-78
2023/11/25 05:23:26;;;;;;;10.50;1.20;;;;;;;0.56;97.59;98595.28;110592;1273;22140;-79
2023/11/25 05:25:56;;;;;;;7.20;1.00;;;;;;;0.56;97.67;98599.86;110618;1272;22543;-78
2023/11/25 05:28:25;;;;;;;6.80;0.90;;;;;;;0.56;97.73;98605.90;110667;1269;23086;-78
2023/11/25 05:30:55;;;;;;;8.20;1.40;;;;;;;0.56;97.84;98610.20;110613;1273;22262;-78
2023/11/25 05:33:26;;;;;;;10.90;2.00;;;;;;;0.57;97.99;98615.11;110591;1273;23112;-79
2023/11/25 05:35:56;;;;;;;6.30;1.60;;;;;;;0.56;98.13;98616.23;110623;1273;22311;-79
2023/11/25 05:38:25;;;;;;;9.00;0.90;;;;;;;0.56;98.10;98614.59;110636;1273;22188;-78
2023/11/25 05:40:57;;;;;;;9.40;1.40;;;;;;;0.57;98.15;98615.18;110617;1266;22212;-79
2023/11/25 05:43:26;;;;;;;5.50;1.30;;;;;;;0.58;98.11;98619.29;110594;1273;22187;-79
2023/11/25 05:45:55;;;;;;;5.80;1.30;;;;;;;0.59;98.21;98625.30;110636;1272;22149;-78
2023/11/25 05:48:26;;;;;;;6.30;1.10;;;;;;;0.59;98.24;98628.05;110625;1272;22400;-79
2023/11/25 05:50:55;;;;;;;7.80;1.20;;;;;;;0.60;98.15;98627.23;110650;1272;22377;-78
2023/11/25 05:53:25;;;;;;;7.70;1.50;;;;;;;0.58;97.88;98624.06;110586;1273;22186;-79
2023/11/25 05:55:55;;;;;;;4.30;0.90;;;;;;;0.57;97.79;98625.20;110616;1273;22223;-78
2023/11/25 05:58:27;;;;;;;8.90;1.50;;;;;;;0.56;97.50;98629.64;110625;1272;22220;-79
2023/11/25 06:00:57;;;;;;;5.80;1.00;;;;;;;0.55;97.56;98630.72;110602;1273;22428;-78
2023/11/25 06:03:26;;;;;;;9.20;1.00;;;;;;;0.54;97.61;98639.08;110602;1266;22216;-80
2023/11/25 06:05:57;;;;;;;6.00;0.90;;;;;;;0.53;97.58;98645.55;110679;1272;22711;-78
2023/11/25 06:08:26;;;;;;;9.20;1.90;;;;;;;0.52;97.58;98648.06;110604;1266;22227;-78
2023/11/25 06:11:21;;;;;;;5.00;0.70;;;;;;;0.52;97.58;98653.65;110567;1273;22205;-79
2023/11/25 06:13:49;;;;;;;9.30;2.00;;;;;;;0.51;97.60;98653.38;110577;1273;22337;-78
2023/11/25 06:16:19;;;;;;;8.30;1.50;;;;;;;0.50;97.46;98656.54;110583;1266;22250;-78
2023/11/25 06:18:48;;;;;;;4.80;1.00;;;;;;;0.51;97.47;98662.71;110602;1265;22207;-78
2023/11/25 06:21:17;;;;;;;4.50;0.70;;;;;;;0.53;97.59;98670.89;110613;1266;22182;-77
2023/11/25 06:23:45;;;;;;;9.80;0.60;;;;;;;0.53;97.61;98671.98;110603;1266;22231;-77
2023/11/25 06:26:19;;;;;;;10.90;0.90;;;;;;;0.51;97.72;98675.18;110588;1269;22184;-78
2023/11/25 06:28:50;;;;;;;5.00;0.80;;;;;;;0.50;97.84;98678.51;110498;1266;22195;-78
2023/11/25 06:31:19;;;;;;;3.00;0.70;;;;;;;0.48;97.95;98682.05;110580;1272;22264;-81
2023/11/25 06:33:48;;;;;;;3.00;0.50;;;;;;;0.46;98.13;98686.84;110557;1273;22448;-78
2023/11/25 06:36:17;;;;;;;6.80;1.00;;;;;;;0.42;98.56;98689.95;110533;1269;22407;-78
2023/11/25 06:38:48;;;;;;;2.30;0.40;;;;;;;0.39;98.98;98698.48;110627;1266;22939;-78
2023/11/25 06:41:21;;;;;;;3.40;0.50;;;;;;;0.34;99.55;98705.54;110577;1270;22304;-80
2023/11/25 06:43:50;;;;;;;6.60;1.30;;;;;;;0.30;99.68;98703.75;110598;1266;23048;-78
2023/11/25 06:46:22;;;;;;;13.10;1.80;;;;;;;0.27;99.71;98710.02;110536;1262;22380;-79
2023/11/25 06:48:52;;;;;;;6.40;1.50;;;;;;;0.24;100.00;98716.73;110525;1271;22202;-80
2023/11/25 06:51:21;;;;;;;3.40;0.80;;;;;;;0.23;99.99;98721.63;110616;1269;22241;-75
2023/11/25 06:53:50;;;;;;;5.50;0.80;;;;;;;0.22;100.00;98730.22;110529;1266;22353;-76
2023/11/25 06:56:19;;;;;;;4.50;0.60;;;;;;;0.21;100.00;98736.23;110554;1266;22205;-75
2023/11/25 06:58:48;;;;;;;4.60;0.90;;;;;;;0.19;100.00;98746.05;110550;1273;22067;-76
2023/11/25 07:01:19;;;;;;;7.40;0.90;;;;;;;0.19;100.00;98754.38;110572;1273;23816;-75
2023/11/25 07:03:47;;;;;;;3.80;0.80;;;;;;;0.17;100.00;98757.52;110539;1270;22356;-75
2023/11/25 07:06:17;;;;;;;5.30;0.70;;;;;;;0.18;100.00;98760.70;110469;1270;22240;-75
2023/11/25 07:08:47;;;;;;;3.40;1.00;;;;;;;0.18;100.00;98770.17;110544;1273;23269;-75
2023/11/25 07:11:16;;;;;;;3.30;0.60;;;;;;;0.18;100.00;98773.89;110548;1262;22250;-75
2023/11/25 07:13:45;;;;;;;2.60;0.40;;;;;;;0.14;100.00;98773.84;110415;1266;22400;-75
2023/11/25 07:16:14;;;;;;;7.40;0.90;;;;;;;0.13;100.00;98778.42;110511;1273;22364;-76
2023/11/25 07:18:45;;;;;;;7.10;0.60;;;;;;;0.14;100.00;98786.93;110475;1271;22489;-75
2023/11/25 07:21:16;;;;;;;6.50;0.80;;;;;;;0.17;100.00;98790.30;110526;1273;22857;-75
2023/11/25 07:23:44;;;;;;;5.50;0.70;;;;;;;0.16;100.00;98792.91;110507;1273;22374;-75
2023/11/25 07:26:15;;;;;;;6.20;0.80;;;;;;;0.17;100.00;98798.20;110512;1273;22170;-75
2023/11/25 07:28:44;;;;;;;4.70;0.70;;;;;;;0.19;100.00;98800.11;110509;1267;22335;-76
2023/11/25 07:31:14;;;;;;;3.60;0.70;;;;;;;0.22;100.00;98806.91;110565;1266;22176;-75
2023/11/25 07:33:43;;;;;;;5.20;0.80;;;;;;;0.24;100.00;98810.74;110526;1266;22186;-76
2023/11/25 07:36:16;;;;;;;4.30;0.80;;;;;;;0.27;100.00;98811.41;110552;1264;22199;-76
2023/11/25 07:38:45;;;;;;;6.50;1.30;;;;;;;0.29;99.91;98809.63;110522;1265;22341;-76
2023/11/25 07:41:17;;;;;;;5.60;0.80;;;;;;;0.31;99.81;98809.73;110515;1273;22214;-77
2023/11/25 07:43:46;;;;;;;4.60;0.90;;;;;;;0.33;99.70;98806.20;110537;1273;22371;-77
2023/11/25 07:46:15;;;;;;;3.50;0.60;;;;;;;0.35;99.81;98811.44;110563;1265;22147;-76
2023/11/25 07:48:44;;;;;;;4.50;0.80;;;;;;;0.37;99.68;98811.23;110470;1273;22206;-76
2023/11/25 07:51:13;;;;;;;7.40;1.30;;;;;;;0.38;99.64;98811.20;110522;1270;22280;-77
2023/11/25 07:53:42;;;;;;;4.40;1.30;;;;;;;0.39;99.73;98812.50;110513;1270;22226;-76
2023/11/25 07:56:11;;;;;;;7.00;0.90;;;;;;;0.39;99.68;98815.55;110534;1266;22186;-76
2023/11/25 07:58:40;;;;;;;3.40;0.80;;;;;;;0.40;99.71;98815.83;110530;1273;22342;-76
2023/11/25 08:01:12;;;;;;;5.40;1.00;;;;;;;0.42;99.73;98815.08;110546;1265;22157;-76
2023/11/25 08:03:41;;;;;;;7.40;1.00;;;;;;;0.41;99.61;98817.13;110547;1266;23541;-77
2023/11/25 08:06:10;;;;;;;5.20;0.80;;;;;;;0.42;99.59;98818.84;110531;1266;22257;-74
2023/11/25 08:08:39;;;;;;;6.00;1.10;;;;;;;0.43;99.47;98817.77;110583;1270;22497;-75
2023/11/25 08:11:08;;;;;;;5.70;0.90;;;;;;;0.44;99.61;98825.10;110175;1273;365195;-76
2023/11/25 08:13:37;;;;;;;5.80;0.70;;;;;;;0.44;99.52;98823.61;110561;1270;22212;-74
2023/11/25 08:16:08;;;;;;;7.40;1.50;;;;;;;0.45;99.75;98827.20;110459;1273;22321;-74
2023/11/25 08:18:38;;;;;;;7.30;1.10;;;;;;;0.44;99.87;98830.74;110537;1266;22412;-75
2023/11/25 08:21:08;;;;;;;9.00;1.60;;;;;;;0.43;99.98;98836.14;110453;1274;22882;-75
2023/11/25 08:23:36;;;;;;;5.80;1.40;;;;;;;0.42;99.99;98836.95;110531;1270;22198;-75
2023/11/25 08:26:05;;;;;;;8.40;1.10;;;;;;;0.40;100.00;98836.85;110511;1273;22301;-75
2023/11/25 08:28:34;;;;;;;10.50;3.20;;;;;;;0.41;100.00;98840.20;110508;1270;23285;-75
2023/11/25 08:31:03;;;;;;;2.50;0.80;;;;;;;0.42;100.00;98841.18;110493;1266;22246;-75
2023/11/25 08:33:32;;;;;;;6.40;1.00;;;;;;;0.43;100.00;98847.36;110530;1273;22214;-75
2023/11/25 08:36:01;;;;;;;5.70;0.90;;;;;;;0.45;100.00;98847.14;110530;1273;22176;-75
2023/11/25 08:38:30;;;;;;;9.50;1.20;;;;;;;0.45;100.00;98852.08;110483;1266;22790;-75
2023/11/25 08:40:58;;;;;;;5.10;1.10;;;;;;;0.45;100.00;98849.86;110524;1257;22300;-74
2023/11/25 08:43:29;;;;;;;7.40;1.10;;;;;;;0.48;100.00;98850.23;110515;1271;22672;-75
2023/11/25 08:45:57;;;;;;;5.40;0.90;;;;;;;0.50;99.85;98848.83;110521;1273;23101;-75
2023/11/25 08:48:26;;;;;;;4.40;0.80;;;;;;;0.52;99.51;98844.69;110578;1267;22163;-75
2023/11/25 08:50:55;;;;;;;5.20;1.10;;;;;;;0.54;99.25;98850.34;110531;1270;22245;-75
2023/11/25 08:53:24;;;;;;;5.50;0.80;;;;;;;0.57;99.12;98847.97;110551;1273;22699;-74
2023/11/25 08:55:55;;;;;;;5.30;0.70;;;;;;;0.58;98.52;98848.23;110590;1270;22353;-74
2023/11/25 08:58:25;;;;;;;;;;;;;;;0.59;98.46;98848.35;110622;1272;23228;-75
2023/11/25 09:00:55;;;;;;;2.10;0.50;;;;;;;0.59;97.94;98849.92;110520;1266;22178;-75
2023/11/25 09:03:24;;;;;;;2.90;0.40;;;;;;;0.60;97.55;98846.66;110557;1272;22213;-77
2023/11/25 09:05:55;;;;;;;2.70;0.60;;;;;;;0.66;98.45;98850.91;110584;1273;22183;-77
2023/11/25 09:08:24;;;;;;;3.60;0.70;;;;;;;0.75;98.54;98851.80;110591;1272;22415;-77
2023/11/25 09:11:02;;;;;;;5.80;0.70;;;;;;;0.84;98.60;98851.33;110611;1267;22142;-77
2023/11/25 09:13:32;;;;;;;4.70;0.80;;;;;;;0.92;98.23;98857.02;110471;1269;22229;-76
2023/11/25 09:16:01;;;;;;;3.90;0.60;;;;;;;0.97;98.27;98854.16;110579;1266;22226;-76
2023/11/25 09:18:31;;;;;;;4.70;0.60;;;;;;;1.01;98.02;98856.91;110579;1266;23324;-76
2023/11/25 09:21:01;;;;;;;4.00;0.90;;;;;;;1.02;97.55;98857.95;110448;1266;22458;-76
2023/11/25 09:23:33;;;;;;;3.70;1.10;;;;;;;1.02;96.80;98861.11;110488;1266;22205;-76
2023/11/25 09:26:03;;;;;;;5.90;0.90;;;;;;;1.02;97.54;98859.54;110467;1269;22212;-76
2023/11/25 09:28:33;;;;;;;6.10;0.90;;;;;;;1.02;97.52;98860.15;110476;1272;22366;-77
2023/11/25 09:31:03;;;;;;;5.30;0.60;;;;;;;1.03;97.68;98858.08;110549;1273;22231;-75
2023/11/25 09:33:33;;;;;;;4.80;0.60;;;;;;;1.04;97.44;98853.89;110542;1273;22556;-75
2023/11/25 09:36:02;;;;;;;3.90;0.70;;;;;;;1.06;97.58;98849.66;110560;1267;22242;-76
2023/11/25 09:38:32;;;;;;;5.30;0.80;;;;;;;1.09;97.68;98850.33;110528;1273;22356;-75
2023/11/25 09:41:01;;;;;;;7.00;1.40;;;;;;;1.13;97.76;98851.67;110524;1266;22256;-75
2023/11/25 09:43:34;;;;;;;5.20;1.20;;;;;;;1.17;97.73;98855.15;110508;1271;22387;-75
2023/11/25 09:46:03;;;;;;;5.10;1.40;;;;;;;1.21;97.76;98860.02;110492;1260;22156;-75
2023/11/25 09:48:33;;;;;;;7.50;1.20;;;;;;;1.23;97.69;98860.32;110567;1273;23319;-76
2023/11/25 09:51:04;;;;;;;8.60;1.00;;;;;;;1.26;97.72;98859.35;110495;1273;22253;-75
2023/11/25 09:53:32;;;;;;;4.50;0.90;;;;;;;1.27;97.48;98857.95;110497;1273;22282;-75
2023/11/25 09:56:04;;;;;;;7.00;1.00;;;;;;;1.28;97.29;98856.92;110513;1260;22211;-75
2023/11/25 09:58:34;;;;;;;4.90;0.90;;;;;;;1.29;97.32;98858.67;110524;1267;22200;-75
2023/11/25 10:01:05;;;;;;;5.50;0.80;;;;;;;1.30;97.16;98859.81;110553;1273;22208;-75
2023/11/25 10:03:37;;;;;;;5.00;0.80;;;;;;;1.31;97.10;98859.73;109795;1267;22547;-79
2023/11/25 10:06:08;;;;;;;4.10;0.70;;;;;;;1.33;97.21;98866.02;107847;1266;22525;-78
2023/11/25 10:08:37;;;;;;;4.50;0.70;;;;;;;1.33;97.01;98863.55;110456;1273;22455;-77
2023/11/25 10:11:07;;;;;;;8.80;0.90;;;;;;;1.33;96.69;98861.66;110595;1272;22190;-77
2023/11/25 10:13:38;;;;;;;6.50;1.00;;;;;;;1.33;96.45;98865.30;110571;1269;22724;-77
2023/11/25 10:16:08;;;;;;;4.40;0.50;;;;;;;1.31;96.42;98861.34;110512;1273;22918;-79
2023/11/25 10:18:38;;;;;;;6.80;0.80;;;;;;;1.30;96.27;98864.14;110520;1273;22389;-77
2023/11/25 10:21:08;;;;;;;3.60;0.60;;;;;;;1.29;96.19;98862.79;110504;1271;22224;-80
2023/11/25 10:23:37;;;;;;;4.60;0.60;;;;;;;1.28;96.19;98866.48;110609;1272;22261;-77
2023/11/25 10:26:08;;;;;;;8.50;0.80;;;;;;;1.29;96.26;98863.09;110582;1267;22231;-77
2023/11/25 10:28:36;;;;;;;2.60;0.50;;;;;;;1.29;95.98;98868.17;110577;1272;22294;-78
2023/11/25 10:31:08;;;;;;;3.30;0.60;;;;;;;1.31;95.96;98868.05;110542;1273;22168;-77
2023/11/25 10:33:40;;;;;;;4.40;0.80;;;;;;;1.32;96.21;98871.39;110553;1266;23535;-79
2023/11/25 10:36:18;;;;;;;4.60;0.60;;;;;;;1.34;96.24;98873.18;110548;1268;22870;-77
2023/11/25 10:38:47;;;;;;;8.00;0.70;;;;;;;1.37;96.14;98873.70;110486;1270;22376;-77
2023/11/25 10:41:15;;;;;;;4.20;0.60;;;;;;;1.39;96.36;98876.84;110494;1269;23379;-78
2023/11/25 10:43:45;;;;;;;2.80;0.50;;;;;;;1.41;95.99;98877.10;110551;1269;22471;-77
2023/11/25 10:46:14;;;;;;;5.10;0.60;;;;;;;1.40;95.90;98877.98;110554;1273;22229;-78
2023/11/25 10:48:43;;;;;;;5.30;0.60;;;;;;;1.40;95.88;98881.13;110513;1269;22178;-79
2023/11/25 10:51:12;;;;;;;2.80;0.60;;;;;;;1.40;95.91;98881.69;110569;1266;22299;-79
2023/11/25 10:53:45;;;;;;;4.20;0.60;;;;;;;1.40;95.66;98888.52;110571;1272;22250;-81
2023/11/25 10:56:19;;;;;;;4.40;0.50;;;;;;;1.38;95.45;98891.05;108835;1269;23214;-77
2023/11/25 10:58:51;;;;;;;5.50;0.40;;;;;;;1.36;95.42;98892.83;107499;1272;22543;-77
2023/11/25 11:01:25;;;;;;;4.00;0.60;;;;;;;1.34;95.50;98892.52;107497;1273;22525;-79
2023/11/25 11:04:00;;;;;;;7.10;0.70;;;;;;;1.34;95.87;98895.89;107835;1266;25284;-80
2023/11/25 11:06:36;;;;;;;6.10;0.70;;;;;;;1.34;95.58;98903.42;110471;1266;22362;-78
2023/11/25 11:09:09;;;;;;;9.50;0.90;;;;;;;1.35;96.13;98904.40;110517;1264;22286;-80
2023/11/25 11:11:48;;;;;;;8.00;0.90;;;;;;;1.37;96.20;98902.52;110533;1271;22681;-79
2023/11/25 11:14:19;;;;;;;6.30;0.90;;;;;;;1.40;96.46;98904.52;110554;1266;23082;-79
2023/11/25 11:16:55;;;;;;;8.90;1.00;;;;;;;1.42;96.43;98904.84;110469;1267;22443;-79
2023/11/25 11:19:29;;;;;;;5.40;0.70;;;;;;;1.45;96.35;98907.96;110574;1272;22332;-81
2023/11/25 11:22:06;;;;;;;6.00;0.80;;;;;;;1.46;96.41;98908.33;110466;1266;22948;-79
2023/11/25 11:24:45;;;;;;;8.50;1.10;;;;;;;1.47;96.34;98907.34;110591;1269;22427;-79
2023/11/25 11:27:21;;;;;;;5.80;0.90;;;;;;;1.46;96.45;98911.52;110507;1266;22346;-79
2023/11/25 11:29:57;;;;;;;3.50;0.90;;;;;;;1.45;96.56;98912.27;110561;1272;22414;-79
2023/11/25 11:32:33;;;;;;;11.10;1.00;;;;;;;1.44;96.72;98908.65;110549;1266;22166;-79
2023/11/25 11:35:02;;;;;;;9.10;1.00;;;;;;;1.42;96.79;98917.34;110562;1272;23037;-81
2023/11/25 11:37:39;;;;;;;6.30;0.90;;;;;;;1.40;96.85;98914.27;110533;1267;22208;-80
2023/11/25 11:40:10;;;;;;;3.70;0.80;;;;;;;1.39;96.96;98914.70;110565;1273;22895;-84
2023/11/25 11:42:39;;;;;;;;;;;;;;;1.37;96.84;98907.71;110577;1273;22501;-79
2023/11/25 11:45:17;;;;;;;4.90;0.80;;;;;;;1.38;97.15;98905.25;110442;1267;22358;-80
2023/11/25 11:47:50;;;;;;;9.40;1.40;;;;;;;1.40;97.28;98900.83;110633;1266;22340;-79
2023/11/25 11:50:21;;;;;;;4.70;0.70;;;;;;;1.43;97.30;98897.27;110491;1269;22404;-80